createdAt,value
2018-09-14T00:00:52.964Z,78.89
2018-09-14T00:03:22.308Z,78.52
2018-09-14T00:05:50.983Z,78.37
2018-09-14T00:08:20.490Z,78.44
2018-09-14T00:10:50.826Z,78.88
2018-09-14T00:13:19.582Z,78.85
2018-09-14T00:15:48.207Z,79.04
2018-09-14T00:18:16.850Z,79.03
2018-09-14T00:20:45.458Z,79.45
2018-09-14T00:23:14.217Z,79.65
2018-09-14T00:25:43.401Z,79.45
2018-09-14T00:28:12.068Z,79.31
2018-09-14T00:30:42.052Z,79.75
2018-09-14T00:33:11.540Z,80.38
2018-09-14T00:35:40.419Z,80.29
2018-09-14T00:38:09.045Z,79.80
2018-09-14T00:40:37.790Z,79.73
2018-09-14T00:43:06.772Z,79.26
2018-09-14T00:45:36.002Z,79.41
2018-09-14T00:48:04.850Z,79.60
2018-09-14T00:50:33.871Z,79.38
2018-09-14T00:53:02.802Z,79.32
2018-09-14T00:55:31.467Z,79.69
2018-09-14T00:58:02.401Z,79.54
2018-09-14T01:00:31.090Z,79.76
2018-09-14T01:03:00.665Z,79.73
2018-09-14T01:05:29.499Z,79.86
2018-09-14T01:07:58.158Z,79.49
2018-09-14T01:10:26.786Z,80.18
2018-09-14T01:12:56.337Z,79.99
2018-09-14T01:15:25.031Z,79.86
2018-09-14T01:17:53.804Z,79.46
2018-09-14T01:20:22.790Z,79.25
2018-09-14T01:22:51.883Z,79.41
2018-09-14T01:25:21.601Z,79.40
2018-09-14T01:27:50.328Z,79.70
2018-09-14T01:30:20.032Z,79.36
2018-09-14T01:32:48.716Z,79.26
2018-09-14T01:35:22.472Z,78.99
2018-09-14T01:37:53.140Z,78.87
2018-09-14T01:40:21.793Z,78.74
2018-09-14T01:42:50.404Z,78.20
2018-09-14T01:45:19.045Z,78.34
2018-09-14T01:47:47.577Z,78.29
2018-09-14T01:50:16.202Z,78.44
2018-09-14T01:52:44.813Z,78.48
2018-09-14T01:55:13.434Z,78.01
2018-09-14T01:57:42.113Z,78.09
2018-09-14T02:00:10.831Z,77.78
2018-09-14T02:02:39.494Z,78.11
2018-09-14T02:05:08.167Z,77.78
2018-09-14T02:07:37.610Z,77.89
2018-09-14T02:10:06.970Z,77.73
2018-09-14T02:12:35.637Z,77.94
2018-09-14T02:15:04.287Z,77.91
2018-09-14T02:17:32.964Z,77.72
2018-09-14T02:20:01.874Z,77.83
2018-09-14T02:22:30.566Z,78.01
2018-09-14T02:25:00.654Z,77.80
2018-09-14T02:27:29.482Z,77.66
2018-09-14T02:29:58.182Z,78.32
2018-09-14T02:32:27.045Z,78.18
2018-09-14T02:34:56.036Z,78.19
2018-09-14T02:37:24.798Z,78.20
2018-09-14T02:39:53.397Z,78.18
2018-09-14T02:42:22.489Z,78.60
2018-09-14T02:44:52.242Z,78.20
2018-09-14T02:47:20.848Z,78.24
2018-09-14T02:49:49.516Z,78.14
2018-09-14T02:52:18.783Z,78.24
2018-09-14T02:54:47.536Z,78.28
2018-09-14T02:57:16.526Z,77.84
2018-09-14T02:59:47.555Z,77.61
2018-09-14T03:02:16.198Z,77.89
2018-09-14T03:04:45.451Z,78.00
2018-09-14T03:07:14.987Z,77.95
2018-09-14T03:09:45.068Z,78.02
2018-09-14T03:12:13.692Z,78.03
2018-09-14T03:14:42.826Z,78.07
2018-09-14T03:17:11.451Z,78.40
2018-09-14T03:19:40.019Z,78.88
2018-09-14T03:22:08.869Z,78.52
2018-09-14T03:24:37.509Z,78.61
2018-09-14T03:27:06.842Z,78.69
2018-09-14T03:29:35.527Z,78.26
2018-09-14T03:32:05.379Z,78.40
2018-09-14T03:34:33.992Z,78.08
2018-09-14T03:37:02.675Z,77.79
2018-09-14T03:39:31.417Z,77.86
2018-09-14T03:42:00.026Z,77.79
2018-09-14T03:44:28.757Z,78.20
2018-09-14T03:46:57.272Z,78.12
2018-09-14T03:49:25.847Z,78.25
2018-09-14T03:51:54.491Z,77.67
2018-09-14T03:54:23.059Z,78.53
2018-09-14T03:56:51.808Z,77.87
2018-09-14T03:59:20.367Z,78.19
2018-09-14T04:01:48.974Z,78.53
2018-09-14T04:04:17.497Z,78.35
2018-09-14T04:06:46.134Z,78.48
2018-09-14T04:09:15.896Z,78.71
2018-09-14T04:11:45.651Z,78.67
2018-09-14T04:14:14.291Z,78.34
2018-09-14T04:16:43.841Z,78.16
2018-09-14T04:19:13.349Z,78.21
2018-09-14T04:21:41.937Z,78.24
2018-09-14T04:24:11.573Z,78.01
2018-09-14T04:26:40.184Z,77.90
2018-09-14T04:29:11.189Z,78.13
2018-09-14T04:31:39.806Z,78.24
2018-09-14T04:34:08.461Z,77.87
2018-09-14T04:36:38.756Z,77.55
2018-09-14T04:39:09.398Z,77.83
2018-09-14T04:41:39.666Z,77.68
2018-09-14T04:44:09.070Z,77.91
2018-09-14T04:46:37.778Z,78.02
2018-09-14T04:49:06.485Z,78.32
2018-09-14T04:51:35.648Z,78.04
2018-09-14T04:54:04.361Z,77.75
2018-09-14T04:56:32.968Z,77.93
2018-09-14T04:59:01.902Z,78.07
2018-09-14T05:01:30.972Z,78.35
2018-09-14T05:04:00.527Z,78.31
2018-09-14T05:06:29.851Z,78.40
2018-09-14T05:08:59.582Z,78.60
2018-09-14T05:11:29.007Z,77.77
2018-09-14T05:13:57.827Z,77.52
2018-09-14T05:16:26.765Z,77.74
2018-09-14T05:18:56.350Z,77.57
2018-09-14T05:21:25.272Z,76.92
2018-09-14T05:23:54.337Z,76.99
2018-09-14T05:26:24.045Z,77.06
2018-09-14T05:28:52.690Z,76.74
2018-09-14T05:31:21.304Z,77.46
2018-09-14T05:33:49.928Z,76.99
2018-09-14T05:36:18.578Z,77.36
2018-09-14T05:38:47.398Z,77.52
2018-09-14T05:41:16.122Z,78.06
2018-09-14T05:43:44.735Z,77.67
2018-09-14T05:46:14.732Z,77.74
2018-09-14T05:48:43.459Z,78.47
2018-09-14T05:51:13.287Z,78.51
2018-09-14T05:53:42.581Z,78.78
2018-09-14T05:56:11.486Z,78.71
2018-09-14T05:58:40.313Z,78.60
2018-09-14T06:01:09.134Z,78.51
2018-09-14T06:03:38.831Z,79.02
2018-09-14T06:06:07.632Z,78.99
2018-09-14T06:08:36.607Z,78.84
2018-09-14T06:11:05.796Z,78.87
2018-09-14T06:13:35.193Z,79.28
2018-09-14T06:16:06.236Z,79.48
2018-09-14T06:18:35.044Z,78.50
2018-09-14T06:21:05.205Z,78.90
2018-09-14T06:23:34.595Z,78.96
2018-09-14T06:26:03.977Z,78.55
2018-09-14T06:28:33.128Z,78.26
2018-09-14T06:31:02.772Z,78.44
2018-09-14T06:33:32.271Z,78.85
2018-09-14T06:36:02.755Z,79.18
2018-09-14T06:38:31.580Z,79.06
2018-09-14T06:41:00.298Z,78.68
2018-09-14T06:43:28.916Z,78.88
2018-09-14T06:45:57.480Z,78.74
2018-09-14T06:48:26.488Z,79.22
2018-09-14T06:50:55.074Z,79.19
2018-09-14T06:53:23.964Z,78.90
2018-09-14T06:55:52.754Z,78.99
2018-09-14T06:58:21.271Z,79.27
2018-09-14T07:00:50.013Z,78.97
2018-09-14T07:03:18.588Z,79.48
2018-09-14T07:05:47.743Z,79.60
2018-09-14T07:08:16.286Z,80.15
2018-09-14T07:10:44.888Z,79.72
2018-09-14T07:13:13.495Z,79.17
2018-09-14T07:15:42.072Z,80.12
2018-09-14T07:18:10.686Z,80.12
2018-09-14T07:20:39.652Z,79.60
2018-09-14T07:23:09.110Z,79.96
2018-09-14T07:25:38.435Z,79.73
2018-09-14T07:28:07.034Z,80.12
2018-09-14T07:30:35.850Z,79.91
2018-09-14T07:33:04.613Z,79.75
2018-09-14T07:35:34.021Z,79.64
2018-09-14T07:38:02.924Z,79.92
2018-09-14T07:40:31.519Z,79.67
2018-09-14T07:43:01.838Z,79.79
2018-09-14T07:45:30.508Z,80.22
2018-09-14T07:47:59.164Z,80.50
2018-09-14T07:50:28.894Z,80.35
2018-09-14T07:52:58.014Z,79.93
2018-09-14T07:55:26.670Z,79.85
2018-09-14T07:57:56.004Z,79.60
2018-09-14T08:00:26.372Z,79.50
2018-09-14T08:02:54.947Z,79.43
2018-09-14T08:05:24.359Z,79.11
2018-09-14T08:07:53.083Z,79.12
2018-09-14T08:10:21.725Z,79.34
2018-09-14T08:12:50.400Z,79.17
2018-09-14T08:15:19.101Z,78.99
2018-09-14T08:17:47.872Z,78.81
2018-09-14T08:20:16.773Z,78.79
2018-09-14T08:22:45.576Z,79.47
2018-09-14T08:25:14.623Z,78.78
2018-09-14T08:27:43.254Z,78.76
2018-09-14T08:30:11.890Z,78.77
2018-09-14T08:32:41.305Z,78.65
2018-09-14T08:35:10.988Z,78.14
2018-09-14T08:37:39.729Z,77.95
2018-09-14T08:40:08.399Z,77.20
2018-09-14T08:42:37.037Z,76.95
2018-09-14T08:45:05.734Z,77.09
2018-09-14T08:47:36.162Z,76.64
2018-09-14T08:50:05.258Z,76.79
2018-09-14T08:52:34.327Z,76.14
2018-09-14T08:55:10.331Z,76.75
2018-09-14T08:57:39.698Z,76.35
2018-09-14T09:00:08.406Z,76.57
2018-09-14T09:02:36.982Z,75.59
2018-09-14T09:05:05.807Z,75.20
2018-09-14T09:07:34.435Z,74.08
2018-09-14T09:10:03.428Z,74.09
2018-09-14T09:12:32.206Z,74.28
2018-09-14T09:15:01.214Z,73.71
2018-09-14T09:17:29.915Z,72.17
2018-09-14T09:19:58.848Z,71.99
2018-09-14T09:22:27.384Z,71.51
2018-09-14T09:24:56.011Z,70.51
2018-09-14T09:27:24.748Z,70.22
2018-09-14T09:29:53.379Z,70.46
2018-09-14T09:32:22.030Z,68.70
2018-09-14T09:34:50.696Z,69.07
2018-09-14T09:37:19.344Z,68.73
2018-09-14T09:39:48.039Z,68.78
2018-09-14T09:42:16.812Z,68.42
2018-09-14T09:44:45.919Z,69.08
2018-09-14T09:47:15.545Z,68.93
2018-09-14T09:49:44.375Z,68.08
2018-09-14T09:52:13.225Z,68.59
2018-09-14T09:54:41.842Z,67.87
2018-09-14T09:57:10.438Z,69.21
2018-09-14T09:59:40.033Z,68.49
2018-09-14T10:02:13.867Z,70.10
2018-09-14T10:04:47.874Z,67.00
2018-09-14T10:07:16.396Z,66.56
2018-09-14T10:09:45.319Z,65.21
2018-09-14T10:12:14.367Z,66.99
2018-09-14T10:14:42.973Z,64.75
2018-09-14T10:17:11.742Z,64.85
2018-09-14T10:19:41.158Z,64.72
2018-09-14T10:22:11.207Z,65.23
2018-09-14T10:24:40.016Z,64.25
2018-09-14T10:27:08.744Z,64.14
2018-09-14T10:29:37.345Z,64.07
2018-09-14T10:32:06.051Z,63.35
2018-09-14T10:34:35.293Z,63.86
2018-09-14T10:37:05.331Z,63.29
2018-09-14T10:39:34.532Z,61.50
2018-09-14T10:42:04.810Z,61.98
2018-09-14T10:44:33.824Z,60.59
2018-09-14T10:47:04.916Z,60.54
2018-09-14T10:49:33.971Z,61.06
2018-09-14T10:52:04.610Z,60.22
2018-09-14T10:54:34.972Z,60.18
2018-09-14T10:57:05.235Z,59.71
2018-09-14T10:59:34.351Z,57.20
2018-09-14T11:02:05.030Z,57.34
2018-09-14T11:04:34.218Z,56.37
2018-09-14T11:07:04.613Z,57.05
2018-09-14T11:09:33.402Z,55.63
2018-09-14T11:12:03.235Z,55.57
2018-09-14T11:14:32.574Z,55.91
2018-09-14T11:17:01.769Z,55.40
2018-09-14T11:19:30.628Z,55.83
2018-09-14T11:21:59.571Z,55.27
2018-09-14T11:24:28.816Z,54.51
2018-09-14T11:26:58.498Z,55.20
2018-09-14T11:29:27.183Z,54.53
2018-09-14T11:31:55.832Z,53.62
2018-09-14T11:34:24.694Z,53.21
2018-09-14T11:36:53.671Z,52.59
2018-09-14T11:39:23.685Z,51.39
2018-09-14T11:41:52.648Z,51.31
2018-09-14T11:44:22.272Z,49.32
2018-09-14T11:46:51.351Z,50.60
2018-09-14T11:49:20.348Z,51.08
2018-09-14T11:51:50.735Z,50.95
2018-09-14T11:54:19.908Z,49.50
2018-09-14T11:56:48.486Z,50.11
2018-09-14T11:59:17.387Z,50.65
2018-09-14T12:01:46.038Z,48.73
2018-09-14T12:04:14.864Z,48.72
2018-09-14T12:06:43.530Z,50.29
2018-09-14T12:09:13.052Z,48.47
2018-09-14T12:11:42.562Z,48.47
2018-09-14T12:14:11.673Z,50.07
2018-09-14T12:16:40.472Z,50.03
2018-09-14T12:19:10.201Z,52.97
2018-09-14T12:21:40.153Z,53.78
2018-09-14T12:24:09.292Z,53.07
2018-09-14T12:26:38.318Z,50.63
2018-09-14T12:29:06.948Z,52.76
2018-09-14T12:31:35.529Z,49.83
2018-09-14T12:34:04.254Z,48.63
2018-09-14T12:36:32.896Z,49.46
2018-09-14T12:39:01.579Z,49.40
2018-09-14T12:41:30.172Z,50.75
2018-09-14T12:43:58.736Z,50.19
2018-09-14T12:46:27.313Z,50.26
2018-09-14T12:48:55.925Z,50.59
2018-09-14T12:51:25.290Z,50.18
2018-09-14T12:53:53.876Z,50.00
2018-09-14T12:56:22.553Z,50.68
2018-09-14T12:58:51.342Z,52.24
2018-09-14T13:01:19.962Z,51.06
2018-09-14T13:03:48.610Z,50.98
2018-09-14T13:06:17.090Z,51.17
2018-09-14T13:08:45.701Z,49.79
2018-09-14T13:11:14.522Z,48.40
2018-09-14T13:13:44.630Z,49.30
2018-09-14T13:16:13.383Z,45.49
2018-09-14T13:18:43.061Z,49.19
2018-09-14T13:21:11.851Z,48.61
2018-09-14T13:23:40.617Z,48.98
2018-09-14T13:26:09.345Z,46.25
2018-09-14T13:28:40.570Z,48.49
2018-09-14T13:31:09.283Z,47.08
2018-09-14T13:33:37.991Z,47.25
2018-09-14T13:36:06.732Z,47.46
2018-09-14T13:38:35.853Z,46.37
2018-09-14T13:41:05.928Z,45.08
2018-09-14T13:43:34.932Z,41.58
2018-09-14T13:46:05.150Z,41.76
2018-09-14T13:48:34.334Z,42.21
2018-09-14T13:51:06.739Z,42.26
2018-09-14T13:53:36.342Z,42.19
2018-09-14T13:56:06.741Z,43.16
2018-09-14T13:58:35.682Z,42.34
2018-09-14T14:01:05.336Z,42.82
2018-09-14T14:03:34.188Z,42.95
2018-09-14T14:06:05.387Z,43.06
2018-09-14T14:08:34.329Z,44.10
2018-09-14T14:11:03.887Z,43.57
2018-09-14T14:13:33.725Z,43.53
2018-09-14T14:16:04.850Z,45.48
2018-09-14T14:18:33.466Z,44.44
2018-09-14T14:21:03.117Z,45.09
2018-09-14T14:23:31.737Z,43.40
2018-09-14T14:26:01.668Z,41.49
2018-09-14T14:28:31.054Z,43.49
2018-09-14T14:30:59.795Z,43.52
2018-09-14T14:33:30.081Z,43.63
2018-09-14T14:35:59.804Z,46.17
2018-09-14T14:38:30.443Z,45.84
2018-09-14T14:40:59.987Z,45.01
2018-09-14T14:43:28.740Z,44.54
2018-09-14T14:45:58.770Z,44.18
2018-09-14T14:48:27.382Z,43.60
2018-09-14T14:50:55.974Z,41.24
2018-09-14T14:53:26.077Z,39.93
2018-09-14T14:55:55.085Z,42.82
2018-09-14T14:58:24.280Z,41.17
2018-09-14T15:00:54.016Z,39.78
2018-09-14T15:03:24.041Z,40.00
2018-09-14T15:05:52.807Z,40.38
2018-09-14T15:08:22.300Z,41.42
2018-09-14T15:10:54.224Z,42.94
2018-09-14T15:13:23.096Z,42.93
2018-09-14T15:15:52.404Z,43.25
2018-09-14T15:18:24.587Z,43.94
2018-09-14T15:20:53.609Z,43.68
2018-09-14T15:23:22.835Z,44.00
2018-09-14T15:25:51.628Z,45.09
2018-09-14T15:28:20.264Z,44.94
2018-09-14T15:30:48.807Z,43.20
2018-09-14T15:33:17.481Z,43.98
2018-09-14T15:35:46.125Z,44.45
2018-09-14T15:38:15.130Z,44.94
2018-09-14T15:40:45.959Z,43.85
2018-09-14T15:43:15.599Z,43.22
2018-09-14T15:45:44.460Z,44.45
2018-09-14T15:48:13.833Z,45.38
2018-09-14T15:50:42.476Z,44.56
2018-09-14T15:53:11.808Z,44.96
2018-09-14T15:55:40.442Z,44.58
2018-09-14T15:58:09.849Z,43.89
2018-09-14T16:00:38.635Z,44.22
2018-09-14T16:03:07.490Z,43.83
2018-09-14T16:05:36.166Z,44.92
2018-09-14T16:08:06.059Z,45.79
2018-09-14T16:10:34.810Z,44.39
2018-09-14T16:13:03.434Z,45.01
2018-09-14T16:15:33.359Z,45.33
2018-09-14T16:18:03.736Z,44.73
2018-09-14T16:20:33.158Z,44.43
2018-09-14T16:23:02.896Z,44.79
2018-09-14T16:25:35.831Z,44.38
2018-09-14T16:28:05.276Z,45.38
2018-09-14T16:30:35.667Z,45.83
2018-09-14T16:33:04.446Z,44.91
2018-09-14T16:35:34.757Z,45.42
2018-09-14T16:38:05.415Z,46.03
2018-09-14T16:40:39.171Z,45.48
2018-09-14T16:43:08.821Z,45.21
2018-09-14T16:45:37.912Z,45.65
2018-09-14T16:48:07.639Z,45.69
2018-09-14T16:50:36.243Z,46.53
2018-09-14T16:53:07.808Z,46.02
2018-09-14T16:55:36.828Z,45.87
2018-09-14T16:58:05.686Z,45.88
2018-09-14T17:00:34.532Z,46.54
2018-09-14T17:03:04.183Z,46.98
2018-09-14T17:05:33.695Z,46.59
2018-09-14T17:08:05.044Z,46.21
2018-09-14T17:10:37.556Z,46.59
2018-09-14T17:13:06.734Z,46.48
2018-09-14T17:15:35.429Z,47.29
2018-09-14T17:18:05.523Z,47.61
2018-09-14T17:20:34.476Z,47.23
2018-09-14T17:23:03.167Z,47.06
2018-09-14T17:25:31.847Z,47.08
2018-09-14T17:28:01.939Z,47.56
2018-09-14T17:30:30.941Z,47.32
2018-09-14T17:32:59.690Z,47.71
2018-09-14T17:35:29.128Z,47.70
2018-09-14T17:37:57.919Z,48.55
2018-09-14T17:40:27.628Z,48.79
2018-09-14T17:42:56.422Z,48.81
2018-09-14T17:45:26.579Z,49.06
2018-09-14T17:47:55.235Z,48.31
2018-09-14T17:50:24.304Z,48.96
2018-09-14T17:52:53.844Z,48.75
2018-09-14T17:55:22.961Z,48.88
2018-09-14T17:57:51.846Z,48.83
2018-09-14T18:00:21.022Z,49.41
2018-09-14T18:02:50.587Z,49.81
2018-09-14T18:05:20.086Z,51.44
2018-09-14T18:07:48.811Z,51.96
2018-09-14T18:10:17.391Z,52.23
2018-09-14T18:12:46.214Z,52.36
2018-09-14T18:15:15.819Z,53.63
2018-09-14T18:17:44.645Z,53.37
2018-09-14T18:20:13.891Z,53.94
2018-09-14T18:22:42.818Z,54.84
2018-09-14T18:25:11.686Z,54.81
2018-09-14T18:27:40.528Z,55.46
2018-09-14T18:30:09.924Z,55.02
2018-09-14T18:32:38.788Z,55.50
2018-09-14T18:35:08.277Z,56.35
2018-09-14T18:37:37.162Z,56.43
2018-09-14T18:40:06.537Z,56.65
2018-09-14T18:42:35.201Z,57.70
2018-09-14T18:45:04.858Z,57.53
2018-09-14T18:47:34.466Z,57.52
2018-09-14T18:50:04.061Z,57.56
2018-09-14T18:52:33.116Z,57.84
2018-09-14T18:55:02.229Z,58.45
2018-09-14T18:57:31.064Z,58.57
2018-09-14T18:59:59.929Z,59.06
2018-09-14T19:02:29.519Z,58.74
2018-09-14T19:04:58.579Z,58.71
2018-09-14T19:07:28.379Z,59.58
2018-09-14T19:09:57.116Z,60.33
2018-09-14T19:12:25.924Z,60.64
2018-09-14T19:14:54.810Z,60.19
2018-09-14T19:17:24.271Z,60.79
2018-09-14T19:19:53.929Z,60.65
2018-09-14T19:22:22.714Z,60.29
2018-09-14T19:24:51.580Z,60.25
2018-09-14T19:27:20.516Z,60.83
2018-09-14T19:29:50.086Z,60.63
2018-09-14T19:32:18.924Z,61.13
2018-09-14T19:34:47.729Z,60.93
2018-09-14T19:37:17.366Z,61.00
2018-09-14T19:39:46.920Z,61.37
2018-09-14T19:48:13.905Z,61.74
2018-09-14T19:50:42.686Z,61.47
2018-09-14T19:53:32.405Z,62.13
2018-09-14T19:56:25.804Z,62.13
2018-09-14T19:58:55.124Z,62.10
2018-09-14T20:01:23.940Z,62.50
2018-09-14T20:03:53.664Z,61.95
2018-09-14T20:06:22.653Z,61.85
2018-09-14T20:08:51.468Z,62.55
2018-09-14T20:11:20.268Z,62.39
2018-09-14T20:13:49.300Z,62.00
2018-09-14T20:16:19.744Z,62.32
2018-09-14T20:18:49.347Z,62.44
2018-09-14T20:21:18.933Z,62.37
2018-09-14T20:23:47.759Z,62.28
2018-09-14T20:26:16.574Z,61.96
2018-09-14T20:28:46.021Z,62.48
2018-09-14T20:31:15.429Z,63.30
2018-09-14T20:33:45.092Z,63.07
2018-09-14T20:36:15.334Z,63.37
2018-09-14T20:38:45.205Z,62.91
2018-09-14T20:41:14.051Z,63.69
2018-09-14T20:43:44.056Z,63.51
2018-09-14T20:46:12.912Z,64.09
2018-09-14T20:48:42.906Z,64.01
2018-09-14T20:51:11.720Z,64.26
2018-09-14T20:53:40.385Z,64.36
2018-09-14T20:56:09.829Z,64.49
2018-09-14T20:58:38.415Z,64.56
2018-09-14T21:01:07.757Z,64.56
2018-09-14T21:03:36.385Z,65.09
2018-09-14T21:06:05.103Z,65.32
2018-09-14T21:08:34.147Z,64.56
2018-09-14T21:11:03.153Z,64.97
2018-09-14T21:13:31.891Z,64.99
2018-09-14T21:16:00.895Z,64.82
2018-09-14T21:18:29.642Z,64.73
2018-09-14T21:20:58.404Z,65.14
2018-09-14T21:23:27.276Z,64.22
2018-09-14T21:25:56.076Z,65.53
2018-09-14T21:28:24.820Z,65.12
2018-09-14T21:30:53.838Z,65.08
2018-09-14T21:33:22.803Z,64.63
2018-09-14T21:35:52.642Z,65.43
2018-09-14T21:38:22.236Z,64.61
2018-09-14T21:40:50.931Z,64.77
2018-09-14T21:43:20.489Z,65.23
2018-09-14T21:45:49.158Z,65.12
2018-09-14T21:48:17.890Z,65.19
2018-09-14T21:51:37.496Z,64.55
2018-09-14T21:54:23.381Z,64.58
2018-09-14T21:56:53.034Z,63.92
2018-09-14T21:59:21.863Z,64.34
2018-09-14T22:01:50.573Z,64.33
2018-09-14T22:04:40.109Z,64.76
2018-09-14T22:10:23.666Z,63.93
2018-09-14T22:12:53.441Z,63.78
2018-09-14T22:15:22.088Z,63.35
2018-09-14T22:17:50.861Z,62.55
2018-09-14T22:20:19.643Z,62.36
2018-09-14T22:22:48.301Z,62.52
2018-09-14T22:25:17.194Z,61.64
2018-09-14T22:27:46.390Z,61.14
2018-09-14T22:30:15.438Z,61.41
2018-09-14T22:32:44.061Z,60.16
2018-09-14T22:35:12.845Z,59.90
2018-09-14T22:37:41.773Z,59.76
2018-09-14T22:40:11.637Z,60.24
2018-09-14T22:42:40.412Z,60.25
2018-09-14T22:45:09.116Z,61.27
2018-09-14T22:47:38.801Z,60.04
2018-09-14T22:50:07.985Z,61.17
2018-09-14T22:52:36.687Z,59.83
2018-09-14T22:55:06.175Z,59.00
2018-09-14T22:57:34.850Z,59.02
2018-09-14T23:00:04.045Z,59.72
2018-09-14T23:02:32.747Z,58.97
2018-09-14T23:05:02.250Z,58.59
2018-09-14T23:07:30.922Z,58.51
2018-09-14T23:09:59.777Z,57.87
2018-09-14T23:12:28.459Z,57.67
2018-09-14T23:14:57.172Z,57.46
2018-09-14T23:17:26.752Z,58.70
2018-09-14T23:19:55.458Z,58.77
2018-09-14T23:22:24.265Z,59.26
2018-09-14T23:24:52.871Z,59.58
2018-09-14T23:27:21.563Z,59.50
2018-09-14T23:29:50.351Z,59.95
2018-09-14T23:32:19.078Z,60.62
2018-09-14T23:34:47.680Z,60.96
2018-09-14T23:37:16.887Z,60.93
2018-09-14T23:39:46.399Z,61.73
2018-09-14T23:42:16.125Z,61.42
2018-09-14T23:44:44.790Z,61.77
2018-09-14T23:47:13.672Z,61.93
2018-09-14T23:49:42.656Z,62.18
2018-09-14T23:52:11.365Z,62.34
2018-09-14T23:54:40.048Z,61.91
2018-09-14T23:57:08.762Z,61.88
2018-09-14T23:59:37.484Z,61.26
